sensor_id;sensor_type;location;lat;lon;timestamp;P1;durP1;ratioP1;P2;durP2;ratioP2
74908;SDS011;63468;52.058;4.824;2022-12-10T00:01:42;112.38;;;34.40;;
74908;SDS011;63468;52.058;4.824;2022-12-10T00:04:07;92.10;;;30.85;;
74908;SDS011;63468;52.058;4.824;2022-12-10T00:06:33;107.93;;;32.55;;
74908;SDS011;63468;52.058;4.824;2022-12-10T00:09:00;98.60;;;32.78;;
74908;SDS011;63468;52.058;4.824;2022-12-10T00:11:25;97.00;;;33.72;;
74908;SDS011;63468;52.058;4.824;2022-12-10T00:13:51;85.38;;;32.83;;
74908;SDS011;63468;52.058;4.824;2022-12-10T00:16:21;103.43;;;33.03;;
74908;SDS011;63468;52.058;4.824;2022-12-10T00:18:47;91.03;;;32.67;;
74908;SDS011;63468;52.058;4.824;2022-12-10T00:21:14;97.22;;;33.13;;
74908;SDS011;63468;52.058;4.824;2022-12-10T00:23:41;88.35;;;31.58;;
74908;SDS011;63468;52.058;4.824;2022-12-10T00:26:11;106.38;;;33.88;;
74908;SDS011;63468;52.058;4.824;2022-12-10T00:28:41;89.70;;;30.77;;
74908;SDS011;63468;52.058;4.824;2022-12-10T00:31:08;100.43;;;33.83;;
74908;SDS011;63468;52.058;4.824;2022-12-10T00:33:35;98.90;;;31.85;;
74908;SDS011;63468;52.058;4.824;2022-12-10T00:36:01;103.50;;;34.40;;
74908;SDS011;63468;52.058;4.824;2022-12-10T00:38:30;87.47;;;31.15;;
74908;SDS011;63468;52.058;4.824;2022-12-10T00:40:55;113.45;;;35.33;;
74908;SDS011;63468;52.058;4.824;2022-12-10T00:43:21;93.53;;;34.50;;
74908;SDS011;63468;52.058;4.824;2022-12-10T00:45:46;98.35;;;34.13;;
74908;SDS011;63468;52.058;4.824;2022-12-10T00:48:11;102.18;;;32.72;;
74908;SDS011;63468;52.058;4.824;2022-12-10T00:50:36;96.10;;;33.65;;
74908;SDS011;63468;52.058;4.824;2022-12-10T00:53:02;102.60;;;33.67;;
74908;SDS011;63468;52.058;4.824;2022-12-10T00:55:27;99.72;;;33.17;;
74908;SDS011;63468;52.058;4.824;2022-12-10T00:57:52;98.90;;;33.75;;
74908;SDS011;63468;52.058;4.824;2022-12-10T01:00:18;86.32;;;30.67;;
74908;SDS011;63468;52.058;4.824;2022-12-10T01:02:43;101.75;;;31.88;;
74908;SDS011;63468;52.058;4.824;2022-12-10T01:05:08;100.00;;;32.15;;
74908;SDS011;63468;52.058;4.824;2022-12-10T01:07:34;106.15;;;33.22;;
74908;SDS011;63468;52.058;4.824;2022-12-10T01:09:59;106.75;;;33.35;;
74908;SDS011;63468;52.058;4.824;2022-12-10T01:12:24;126.47;;;34.88;;
74908;SDS011;63468;52.058;4.824;2022-12-10T01:14:50;113.80;;;37.05;;
74908;SDS011;63468;52.058;4.824;2022-12-10T01:17:15;133.48;;;38.50;;
74908;SDS011;63468;52.058;4.824;2022-12-10T01:19:40;111.75;;;34.53;;
74908;SDS011;63468;52.058;4.824;2022-12-10T01:22:06;118.68;;;35.25;;
74908;SDS011;63468;52.058;4.824;2022-12-10T01:24:31;118.20;;;36.15;;
74908;SDS011;63468;52.058;4.824;2022-12-10T01:26:56;122.93;;;37.28;;
74908;SDS011;63468;52.058;4.824;2022-12-10T01:29:22;118.65;;;39.42;;
74908;SDS011;63468;52.058;4.824;2022-12-10T01:31:50;141.43;;;41.45;;
74908;SDS011;63468;52.058;4.824;2022-12-10T01:34:16;123.97;;;38.55;;
74908;SDS011;63468;52.058;4.824;2022-12-10T01:36:43;137.95;;;41.83;;
74908;SDS011;63468;52.058;4.824;2022-12-10T01:39:10;128.98;;;37.15;;
74908;SDS011;63468;52.058;4.824;2022-12-10T01:41:39;124.88;;;37.08;;
74908;SDS011;63468;52.058;4.824;2022-12-10T01:46:37;135.50;;;35.75;;
74908;SDS011;63468;52.058;4.824;2022-12-10T01:49:07;127.05;;;38.50;;
74908;SDS011;63468;52.058;4.824;2022-12-10T01:51:37;149.07;;;38.60;;
74908;SDS011;63468;52.058;4.824;2022-12-10T01:54:04;130.90;;;37.08;;
74908;SDS011;63468;52.058;4.824;2022-12-10T01:56:33;141.55;;;38.90;;
74908;SDS011;63468;52.058;4.824;2022-12-10T01:59:00;149.27;;;37.35;;
74908;SDS011;63468;52.058;4.824;2022-12-10T02:01:35;145.63;;;37.88;;
74908;SDS011;63468;52.058;4.824;2022-12-10T02:07:14;144.00;;;37.30;;
74908;SDS011;63468;52.058;4.824;2022-12-10T02:12:39;112.85;;;34.00;;
74908;SDS011;63468;52.058;4.824;2022-12-10T02:15:14;147.60;;;35.28;;
74908;SDS011;63468;52.058;4.824;2022-12-10T02:17:43;139.23;;;36.13;;
74908;SDS011;63468;52.058;4.824;2022-12-10T02:23:08;135.52;;;34.83;;
74908;SDS011;63468;52.058;4.824;2022-12-10T02:25:43;127.75;;;35.55;;
74908;SDS011;63468;52.058;4.824;2022-12-10T02:28:21;155.02;;;37.50;;
74908;SDS011;63468;52.058;4.824;2022-12-10T02:30:53;133.07;;;36.47;;
74908;SDS011;63468;52.058;4.824;2022-12-10T02:33:19;128.52;;;37.50;;
74908;SDS011;63468;52.058;4.824;2022-12-10T02:35:45;118.70;;;34.42;;
74908;SDS011;63468;52.058;4.824;2022-12-10T02:38:13;141.00;;;39.67;;
74908;SDS011;63468;52.058;4.824;2022-12-10T02:40:42;133.70;;;39.42;;
74908;SDS011;63468;52.058;4.824;2022-12-10T02:43:10;136.55;;;35.45;;
74908;SDS011;63468;52.058;4.824;2022-12-10T02:45:37;124.10;;;39.70;;
74908;SDS011;63468;52.058;4.824;2022-12-10T02:48:03;167.73;;;40.70;;
74908;SDS011;63468;52.058;4.824;2022-12-10T02:50:29;153.07;;;38.53;;
74908;SDS011;63468;52.058;4.824;2022-12-10T02:52:54;160.90;;;38.13;;
74908;SDS011;63468;52.058;4.824;2022-12-10T02:55:20;151.68;;;34.78;;
74908;SDS011;63468;52.058;4.824;2022-12-10T03:00:29;117.30;;;34.47;;
74908;SDS011;63468;52.058;4.824;2022-12-10T03:03:04;131.77;;;36.28;;
74908;SDS011;63468;52.058;4.824;2022-12-10T03:16:14;103.28;;;32.80;;
74908;SDS011;63468;52.058;4.824;2022-12-10T03:18:41;171.63;;;36.95;;
74908;SDS011;63468;52.058;4.824;2022-12-10T03:21:08;140.75;;;35.50;;
74908;SDS011;63468;52.058;4.824;2022-12-10T03:23:35;121.55;;;32.22;;
74908;SDS011;63468;52.058;4.824;2022-12-10T03:26:02;162.70;;;37.08;;
74908;SDS011;63468;52.058;4.824;2022-12-10T03:28:28;127.57;;;34.42;;
74908;SDS011;63468;52.058;4.824;2022-12-10T03:30:57;130.73;;;34.55;;
74908;SDS011;63468;52.058;4.824;2022-12-10T03:33:23;162.65;;;38.55;;
74908;SDS011;63468;52.058;4.824;2022-12-10T03:35:48;158.90;;;37.25;;
74908;SDS011;63468;52.058;4.824;2022-12-10T03:38:14;168.55;;;37.47;;
74908;SDS011;63468;52.058;4.824;2022-12-10T03:40:40;127.03;;;34.78;;
74908;SDS011;63468;52.058;4.824;2022-12-10T03:43:05;144.90;;;33.72;;
74908;SDS011;63468;52.058;4.824;2022-12-10T03:45:31;111.88;;;30.60;;
74908;SDS011;63468;52.058;4.824;2022-12-10T03:47:56;128.20;;;30.42;;
74908;SDS011;63468;52.058;4.824;2022-12-10T03:50:21;98.88;;;29.50;;
74908;SDS011;63468;52.058;4.824;2022-12-10T03:52:47;96.28;;;29.95;;
74908;SDS011;63468;52.058;4.824;2022-12-10T03:55:12;100.82;;;31.38;;
74908;SDS011;63468;52.058;4.824;2022-12-10T03:57:37;130.77;;;32.35;;
74908;SDS011;63468;52.058;4.824;2022-12-10T04:00:03;119.80;;;32.92;;
74908;SDS011;63468;52.058;4.824;2022-12-10T04:02:30;121.22;;;34.65;;
74908;SDS011;63468;52.058;4.824;2022-12-10T04:04:55;114.85;;;29.58;;
74908;SDS011;63468;52.058;4.824;2022-12-10T04:07:20;98.63;;;30.77;;
74908;SDS011;63468;52.058;4.824;2022-12-10T04:09:46;97.72;;;28.45;;
74908;SDS011;63468;52.058;4.824;2022-12-10T04:12:11;88.75;;;25.65;;
74908;SDS011;63468;52.058;4.824;2022-12-10T04:14:36;102.05;;;30.60;;
74908;SDS011;63468;52.058;4.824;2022-12-10T04:17:20;83.72;;;27.02;;
74908;SDS011;63468;52.058;4.824;2022-12-10T04:19:45;85.20;;;26.98;;
74908;SDS011;63468;52.058;4.824;2022-12-10T04:22:11;102.78;;;30.25;;
74908;SDS011;63468;52.058;4.824;2022-12-10T04:24:55;104.97;;;26.65;;
74908;SDS011;63468;52.058;4.824;2022-12-10T04:27:39;68.63;;;26.00;;
74908;SDS011;63468;52.058;4.824;2022-12-10T04:30:08;73.07;;;26.13;;
74908;SDS011;63468;52.058;4.824;2022-12-10T04:32:35;102.85;;;25.98;;
74908;SDS011;63468;52.058;4.824;2022-12-10T04:35:00;105.90;;;29.85;;
74908;SDS011;63468;52.058;4.824;2022-12-10T04:37:26;117.63;;;27.17;;
74908;SDS011;63468;52.058;4.824;2022-12-10T04:39:52;77.88;;;27.65;;
74908;SDS011;63468;52.058;4.824;2022-12-10T04:42:17;111.07;;;28.42;;
74908;SDS011;63468;52.058;4.824;2022-12-10T04:44:43;92.28;;;26.45;;
74908;SDS011;63468;52.058;4.824;2022-12-10T04:47:09;77.43;;;24.65;;
74908;SDS011;63468;52.058;4.824;2022-12-10T04:49:34;130.43;;;27.73;;
74908;SDS011;63468;52.058;4.824;2022-12-10T04:52:00;78.20;;;27.23;;
74908;SDS011;63468;52.058;4.824;2022-12-10T04:54:26;83.97;;;24.50;;
74908;SDS011;63468;52.058;4.824;2022-12-10T04:56:51;70.72;;;24.25;;
74908;SDS011;63468;52.058;4.824;2022-12-10T04:59:17;107.55;;;28.77;;
74908;SDS011;63468;52.058;4.824;2022-12-10T05:01:42;85.63;;;27.02;;
74908;SDS011;63468;52.058;4.824;2022-12-10T05:04:09;68.35;;;24.08;;
74908;SDS011;63468;52.058;4.824;2022-12-10T05:06:36;102.72;;;25.38;;
74908;SDS011;63468;52.058;4.824;2022-12-10T05:09:02;80.78;;;27.15;;
74908;SDS011;63468;52.058;4.824;2022-12-10T05:11:29;99.15;;;27.27;;
74908;SDS011;63468;52.058;4.824;2022-12-10T05:13:55;84.85;;;24.38;;
74908;SDS011;63468;52.058;4.824;2022-12-10T05:16:22;109.05;;;26.95;;
74908;SDS011;63468;52.058;4.824;2022-12-10T05:18:48;80.68;;;24.23;;
74908;SDS011;63468;52.058;4.824;2022-12-10T05:21:15;81.25;;;25.00;;
74908;SDS011;63468;52.058;4.824;2022-12-10T05:23:42;80.47;;;25.67;;
74908;SDS011;63468;52.058;4.824;2022-12-10T05:26:10;69.45;;;25.40;;
74908;SDS011;63468;52.058;4.824;2022-12-10T05:28:38;79.40;;;25.45;;
74908;SDS011;63468;52.058;4.824;2022-12-10T05:31:10;72.22;;;25.02;;
74908;SDS011;63468;52.058;4.824;2022-12-10T05:33:39;79.65;;;25.55;;
74908;SDS011;63468;52.058;4.824;2022-12-10T05:36:05;137.40;;;28.85;;
74908;SDS011;63468;52.058;4.824;2022-12-10T05:38:31;79.82;;;25.02;;
74908;SDS011;63468;52.058;4.824;2022-12-10T05:41:16;84.50;;;25.00;;
74908;SDS011;63468;52.058;4.824;2022-12-10T05:43:43;110.30;;;28.58;;
74908;SDS011;63468;52.058;4.824;2022-12-10T05:46:09;70.47;;;27.67;;
74908;SDS011;63468;52.058;4.824;2022-12-10T05:48:37;86.20;;;24.60;;
74908;SDS011;63468;52.058;4.824;2022-12-10T05:51:06;81.07;;;27.33;;
74908;SDS011;63468;52.058;4.824;2022-12-10T05:53:33;61.38;;;24.42;;
74908;SDS011;63468;52.058;4.824;2022-12-10T05:55:59;84.55;;;27.02;;
74908;SDS011;63468;52.058;4.824;2022-12-10T05:58:26;75.20;;;27.88;;
74908;SDS011;63468;52.058;4.824;2022-12-10T06:00:52;78.95;;;27.15;;
74908;SDS011;63468;52.058;4.824;2022-12-10T06:03:18;68.00;;;25.98;;
74908;SDS011;63468;52.058;4.824;2022-12-10T06:05:43;71.97;;;27.38;;
74908;SDS011;63468;52.058;4.824;2022-12-10T06:08:08;75.70;;;28.00;;
74908;SDS011;63468;52.058;4.824;2022-12-10T06:10:34;83.82;;;27.80;;
74908;SDS011;63468;52.058;4.824;2022-12-10T06:13:00;88.07;;;27.77;;
74908;SDS011;63468;52.058;4.824;2022-12-10T06:15:26;80.13;;;26.30;;
74908;SDS011;63468;52.058;4.824;2022-12-10T06:17:51;69.60;;;25.50;;
74908;SDS011;63468;52.058;4.824;2022-12-10T06:20:16;83.85;;;28.92;;
74908;SDS011;63468;52.058;4.824;2022-12-10T06:22:42;82.00;;;27.70;;
74908;SDS011;63468;52.058;4.824;2022-12-10T06:25:07;71.78;;;22.63;;
74908;SDS011;63468;52.058;4.824;2022-12-10T06:27:33;92.03;;;28.35;;
74908;SDS011;63468;52.058;4.824;2022-12-10T06:29:58;97.50;;;28.27;;
74908;SDS011;63468;52.058;4.824;2022-12-10T06:32:24;90.45;;;28.48;;
74908;SDS011;63468;52.058;4.824;2022-12-10T06:34:49;87.90;;;26.92;;
74908;SDS011;63468;52.058;4.824;2022-12-10T06:37:14;79.47;;;28.52;;
74908;SDS011;63468;52.058;4.824;2022-12-10T06:39:40;71.00;;;26.40;;
74908;SDS011;63468;52.058;4.824;2022-12-10T06:42:05;73.45;;;27.13;;
74908;SDS011;63468;52.058;4.824;2022-12-10T06:44:31;84.20;;;28.58;;
74908;SDS011;63468;52.058;4.824;2022-12-10T06:46:56;79.30;;;28.85;;
74908;SDS011;63468;52.058;4.824;2022-12-10T06:49:21;60.53;;;24.40;;
74908;SDS011;63468;52.058;4.824;2022-12-10T06:51:47;65.05;;;26.77;;
74908;SDS011;63468;52.058;4.824;2022-12-10T06:54:12;82.28;;;28.85;;
74908;SDS011;63468;52.058;4.824;2022-12-10T06:56:39;107.57;;;31.58;;
74908;SDS011;63468;52.058;4.824;2022-12-10T06:59:04;69.97;;;26.75;;
74908;SDS011;63468;52.058;4.824;2022-12-10T07:01:31;94.95;;;31.63;;
74908;SDS011;63468;52.058;4.824;2022-12-10T07:03:57;89.97;;;28.70;;
74908;SDS011;63468;52.058;4.824;2022-12-10T07:06:23;80.38;;;27.85;;
74908;SDS011;63468;52.058;4.824;2022-12-10T07:08:49;71.30;;;27.63;;
74908;SDS011;63468;52.058;4.824;2022-12-10T07:11:15;89.38;;;28.40;;
74908;SDS011;63468;52.058;4.824;2022-12-10T07:13:45;86.78;;;29.90;;
74908;SDS011;63468;52.058;4.824;2022-12-10T07:16:18;78.63;;;27.73;;
74908;SDS011;63468;52.058;4.824;2022-12-10T07:18:44;74.90;;;27.02;;
74908;SDS011;63468;52.058;4.824;2022-12-10T07:21:17;87.38;;;30.05;;
74908;SDS011;63468;52.058;4.824;2022-12-10T07:23:44;69.05;;;26.23;;
74908;SDS011;63468;52.058;4.824;2022-12-10T07:26:09;77.00;;;27.80;;
74908;SDS011;63468;52.058;4.824;2022-12-10T07:28:35;82.38;;;30.30;;
74908;SDS011;63468;52.058;4.824;2022-12-10T07:31:03;73.78;;;29.38;;
74908;SDS011;63468;52.058;4.824;2022-12-10T07:33:30;77.85;;;27.95;;
74908;SDS011;63468;52.058;4.824;2022-12-10T07:35:56;91.00;;;28.23;;
74908;SDS011;63468;52.058;4.824;2022-12-10T07:38:21;69.28;;;26.30;;
74908;SDS011;63468;52.058;4.824;2022-12-10T07:40:47;75.75;;;26.83;;
74908;SDS011;63468;52.058;4.824;2022-12-10T07:43:13;74.72;;;27.98;;
74908;SDS011;63468;52.058;4.824;2022-12-10T07:45:38;84.60;;;30.05;;
74908;SDS011;63468;52.058;4.824;2022-12-10T07:48:04;76.05;;;27.70;;
74908;SDS011;63468;52.058;4.824;2022-12-10T07:50:29;70.28;;;25.85;;
74908;SDS011;63468;52.058;4.824;2022-12-10T07:52:55;87.68;;;34.75;;
74908;SDS011;63468;52.058;4.824;2022-12-10T07:55:20;198.55;;;64.75;;
74908;SDS011;63468;52.058;4.824;2022-12-10T07:57:45;115.15;;;45.35;;
74908;SDS011;63468;52.058;4.824;2022-12-10T08:00:11;98.57;;;32.97;;
74908;SDS011;63468;52.058;4.824;2022-12-10T08:02:36;83.55;;;31.02;;
74908;SDS011;63468;52.058;4.824;2022-12-10T08:05:02;76.57;;;30.05;;
74908;SDS011;63468;52.058;4.824;2022-12-10T08:07:27;75.03;;;32.10;;
74908;SDS011;63468;52.058;4.824;2022-12-10T08:09:52;81.88;;;30.60;;
74908;SDS011;63468;52.058;4.824;2022-12-10T08:12:18;72.50;;;29.73;;
74908;SDS011;63468;52.058;4.824;2022-12-10T08:14:43;63.33;;;27.73;;
74908;SDS011;63468;52.058;4.824;2022-12-10T08:17:08;71.55;;;28.33;;
74908;SDS011;63468;52.058;4.824;2022-12-10T08:19:34;72.25;;;27.67;;
74908;SDS011;63468;52.058;4.824;2022-12-10T08:21:59;79.97;;;29.88;;
74908;SDS011;63468;52.058;4.824;2022-12-10T08:24:24;70.72;;;29.13;;
74908;SDS011;63468;52.058;4.824;2022-12-10T08:26:50;74.57;;;28.92;;
74908;SDS011;63468;52.058;4.824;2022-12-10T08:29:15;70.72;;;29.40;;
74908;SDS011;63468;52.058;4.824;2022-12-10T08:31:40;88.18;;;28.48;;
74908;SDS011;63468;52.058;4.824;2022-12-10T08:34:10;59.10;;;26.42;;
74908;SDS011;63468;52.058;4.824;2022-12-10T08:36:37;67.20;;;27.15;;
74908;SDS011;63468;52.058;4.824;2022-12-10T08:39:02;70.00;;;26.83;;
74908;SDS011;63468;52.058;4.824;2022-12-10T08:41:28;72.13;;;27.75;;
74908;SDS011;63468;52.058;4.824;2022-12-10T08:43:53;65.72;;;24.95;;
74908;SDS011;63468;52.058;4.824;2022-12-10T08:46:19;61.13;;;25.55;;
74908;SDS011;63468;52.058;4.824;2022-12-10T08:48:45;74.32;;;25.08;;
74908;SDS011;63468;52.058;4.824;2022-12-10T08:51:11;65.00;;;22.67;;
74908;SDS011;63468;52.058;4.824;2022-12-10T08:53:39;73.10;;;28.15;;
74908;SDS011;63468;52.058;4.824;2022-12-10T08:56:04;89.75;;;30.35;;
74908;SDS011;63468;52.058;4.824;2022-12-10T08:58:30;73.80;;;27.50;;
74908;SDS011;63468;52.058;4.824;2022-12-10T09:00:55;87.47;;;28.88;;
74908;SDS011;63468;52.058;4.824;2022-12-10T09:03:21;73.88;;;27.58;;
74908;SDS011;63468;52.058;4.824;2022-12-10T09:05:46;60.55;;;24.33;;
74908;SDS011;63468;52.058;4.824;2022-12-10T09:08:12;66.60;;;25.65;;
74908;SDS011;63468;52.058;4.824;2022-12-10T09:10:38;86.88;;;38.65;;
74908;SDS011;63468;52.058;4.824;2022-12-10T09:13:04;74.95;;;24.95;;
74908;SDS011;63468;52.058;4.824;2022-12-10T09:15:29;82.78;;;28.48;;
74908;SDS011;63468;52.058;4.824;2022-12-10T09:17:55;85.85;;;29.70;;
74908;SDS011;63468;52.058;4.824;2022-12-10T09:20:20;85.82;;;30.70;;
74908;SDS011;63468;52.058;4.824;2022-12-10T09:22:45;72.18;;;28.05;;
74908;SDS011;63468;52.058;4.824;2022-12-10T09:25:11;100.50;;;32.63;;
74908;SDS011;63468;52.058;4.824;2022-12-10T09:27:39;108.57;;;32.30;;
74908;SDS011;63468;52.058;4.824;2022-12-10T09:30:04;82.75;;;29.88;;
74908;SDS011;63468;52.058;4.824;2022-12-10T09:32:31;100.20;;;31.55;;
74908;SDS011;63468;52.058;4.824;2022-12-10T09:34:56;100.63;;;33.80;;
74908;SDS011;63468;52.058;4.824;2022-12-10T09:37:21;82.03;;;33.38;;
74908;SDS011;63468;52.058;4.824;2022-12-10T09:39:47;115.80;;;37.58;;
74908;SDS011;63468;52.058;4.824;2022-12-10T09:44:42;74.07;;;31.92;;
74908;SDS011;63468;52.058;4.824;2022-12-10T09:47:11;87.53;;;32.35;;
74908;SDS011;63468;52.058;4.824;2022-12-10T09:52:15;74.70;;;31.13;;
74908;SDS011;63468;52.058;4.824;2022-12-10T09:54:44;85.07;;;30.27;;
74908;SDS011;63468;52.058;4.824;2022-12-10T09:57:17;88.95;;;34.42;;
74908;SDS011;63468;52.058;4.824;2022-12-10T09:59:49;89.57;;;35.17;;
74908;SDS011;63468;52.058;4.824;2022-12-10T10:04:48;88.03;;;34.38;;
74908;SDS011;63468;52.058;4.824;2022-12-10T10:07:22;79.05;;;29.00;;
74908;SDS011;63468;52.058;4.824;2022-12-10T10:09:49;87.72;;;32.28;;
74908;SDS011;63468;52.058;4.824;2022-12-10T10:12:16;70.10;;;29.83;;
74908;SDS011;63468;52.058;4.824;2022-12-10T10:14:42;76.85;;;30.52;;
74908;SDS011;63468;52.058;4.824;2022-12-10T10:17:14;106.70;;;34.28;;
74908;SDS011;63468;52.058;4.824;2022-12-10T10:19:43;74.40;;;30.67;;
74908;SDS011;63468;52.058;4.824;2022-12-10T10:22:09;79.85;;;28.48;;
74908;SDS011;63468;52.058;4.824;2022-12-10T10:24:45;90.25;;;32.50;;
74908;SDS011;63468;52.058;4.824;2022-12-10T10:27:17;71.13;;;28.98;;
74908;SDS011;63468;52.058;4.824;2022-12-10T10:29:47;66.25;;;28.27;;
74908;SDS011;63468;52.058;4.824;2022-12-10T10:32:18;64.18;;;27.10;;
74908;SDS011;63468;52.058;4.824;2022-12-10T10:34:51;77.15;;;27.88;;
74908;SDS011;63468;52.058;4.824;2022-12-10T10:39:48;86.22;;;30.42;;
74908;SDS011;63468;52.058;4.824;2022-12-10T10:42:18;80.07;;;29.48;;
74908;SDS011;63468;52.058;4.824;2022-12-10T10:44:49;62.95;;;27.05;;
74908;SDS011;63468;52.058;4.824;2022-12-10T10:47:28;77.72;;;28.40;;
74908;SDS011;63468;52.058;4.824;2022-12-10T10:49:56;79.15;;;29.35;;
74908;SDS011;63468;52.058;4.824;2022-12-10T10:52:21;76.90;;;30.17;;
74908;SDS011;63468;52.058;4.824;2022-12-10T10:54:47;101.93;;;32.28;;
74908;SDS011;63468;52.058;4.824;2022-12-10T11:00:20;88.80;;;30.85;;
74908;SDS011;63468;52.058;4.824;2022-12-10T11:02:49;83.45;;;31.35;;
74908;SDS011;63468;52.058;4.824;2022-12-10T11:05:16;95.15;;;32.75;;
74908;SDS011;63468;52.058;4.824;2022-12-10T11:10:16;92.43;;;30.23;;
74908;SDS011;63468;52.058;4.824;2022-12-10T11:12:42;110.60;;;33.25;;
74908;SDS011;63468;52.058;4.824;2022-12-10T11:17:51;82.03;;;32.42;;
74908;SDS011;63468;52.058;4.824;2022-12-10T11:20:29;99.40;;;33.87;;
74908;SDS011;63468;52.058;4.824;2022-12-10T11:22:57;113.68;;;36.65;;
74908;SDS011;63468;52.058;4.824;2022-12-10T11:30:38;118.05;;;36.75;;
74908;SDS011;63468;52.058;4.824;2022-12-10T11:33:18;100.88;;;39.55;;
74908;SDS011;63468;52.058;4.824;2022-12-10T11:47:35;105.03;;;32.88;;
74908;SDS011;63468;52.058;4.824;2022-12-10T11:50:18;108.63;;;37.35;;
74908;SDS011;63468;52.058;4.824;2022-12-10T11:56:21;116.97;;;35.08;;
74908;SDS011;63468;52.058;4.824;2022-12-10T11:58:38;92.22;;;32.08;;
74908;SDS011;63468;52.058;4.824;2022-12-10T12:01:13;97.88;;;32.50;;
74908;SDS011;63468;52.058;4.824;2022-12-10T12:12:01;103.97;;;32.38;;
74908;SDS011;63468;52.058;4.824;2022-12-10T12:14:43;109.07;;;34.30;;
74908;SDS011;63468;52.058;4.824;2022-12-10T12:19:50;110.65;;;36.67;;
74908;SDS011;63468;52.058;4.824;2022-12-10T12:22:23;122.65;;;38.53;;
74908;SDS011;63468;52.058;4.824;2022-12-10T12:27:20;104.63;;;32.22;;
74908;SDS011;63468;52.058;4.824;2022-12-10T12:30:12;116.95;;;35.83;;
74908;SDS011;63468;52.058;4.824;2022-12-10T12:38:23;117.38;;;36.28;;
74908;SDS011;63468;52.058;4.824;2022-12-10T12:40:55;101.82;;;33.17;;
74908;SDS011;63468;52.058;4.824;2022-12-10T12:43:46;107.95;;;36.25;;
74908;SDS011;63468;52.058;4.824;2022-12-10T12:46:18;115.05;;;32.00;;
74908;SDS011;63468;52.058;4.824;2022-12-10T12:49:00;93.75;;;33.17;;
74908;SDS011;63468;52.058;4.824;2022-12-10T12:51:38;108.90;;;34.58;;
74908;SDS011;63468;52.058;4.824;2022-12-10T12:54:10;130.90;;;35.08;;
74908;SDS011;63468;52.058;4.824;2022-12-10T12:59:36;114.82;;;36.63;;
74908;SDS011;63468;52.058;4.824;2022-12-10T13:02:17;96.50;;;32.63;;
74908;SDS011;63468;52.058;4.824;2022-12-10T13:04:51;117.65;;;33.28;;
74908;SDS011;63468;52.058;4.824;2022-12-10T13:10:22;120.72;;;36.00;;
74908;SDS011;63468;52.058;4.824;2022-12-10T13:12:50;121.75;;;33.50;;
74908;SDS011;63468;52.058;4.824;2022-12-10T13:15:39;110.20;;;32.72;;
74908;SDS011;63468;52.058;4.824;2022-12-10T13:18:05;93.53;;;33.97;;
74908;SDS011;63468;52.058;4.824;2022-12-10T13:21:15;117.82;;;31.98;;
74908;SDS011;63468;52.058;4.824;2022-12-10T13:23:52;113.80;;;34.03;;
74908;SDS011;63468;52.058;4.824;2022-12-10T13:26:29;101.93;;;32.92;;
74908;SDS011;63468;52.058;4.824;2022-12-10T13:28:55;111.13;;;34.03;;
74908;SDS011;63468;52.058;4.824;2022-12-10T13:31:36;115.80;;;35.50;;
74908;SDS011;63468;52.058;4.824;2022-12-10T13:36:34;113.30;;;32.08;;
74908;SDS011;63468;52.058;4.824;2022-12-10T13:41:27;133.60;;;44.70;;
74908;SDS011;63468;52.058;4.824;2022-12-10T13:49:52;114.32;;;36.72;;
74908;SDS011;63468;52.058;4.824;2022-12-10T13:52:19;123.57;;;35.40;;
74908;SDS011;63468;52.058;4.824;2022-12-10T13:54:58;118.95;;;40.85;;
74908;SDS011;63468;52.058;4.824;2022-12-10T14:00:20;131.55;;;36.72;;
74908;SDS011;63468;52.058;4.824;2022-12-10T14:02:57;126.50;;;35.95;;
74908;SDS011;63468;52.058;4.824;2022-12-10T14:08:35;123.85;;;38.53;;
74908;SDS011;63468;52.058;4.824;2022-12-10T14:11:04;115.80;;;35.25;;
74908;SDS011;63468;52.058;4.824;2022-12-10T14:13:32;129.63;;;39.17;;
74908;SDS011;63468;52.058;4.824;2022-12-10T14:16:01;125.28;;;37.35;;
74908;SDS011;63468;52.058;4.824;2022-12-10T14:18:27;126.28;;;37.70;;
74908;SDS011;63468;52.058;4.824;2022-12-10T14:20:54;130.93;;;38.10;;
74908;SDS011;63468;52.058;4.824;2022-12-10T14:23:27;124.05;;;40.50;;
74908;SDS011;63468;52.058;4.824;2022-12-10T14:26:14;111.80;;;37.83;;
74908;SDS011;63468;52.058;4.824;2022-12-10T14:28:42;137.60;;;39.53;;
74908;SDS011;63468;52.058;4.824;2022-12-10T14:31:51;119.95;;;37.67;;
74908;SDS011;63468;52.058;4.824;2022-12-10T14:34:03;125.30;;;39.10;;
74908;SDS011;63468;52.058;4.824;2022-12-10T14:36:37;162.93;;;39.60;;
74908;SDS011;63468;52.058;4.824;2022-12-10T14:39:04;143.18;;;37.90;;
74908;SDS011;63468;52.058;4.824;2022-12-10T14:41:38;133.23;;;37.72;;
74908;SDS011;63468;52.058;4.824;2022-12-10T14:44:04;122.75;;;40.33;;
74908;SDS011;63468;52.058;4.824;2022-12-10T14:46:30;126.82;;;38.25;;
74908;SDS011;63468;52.058;4.824;2022-12-10T14:48:56;148.23;;;37.78;;
74908;SDS011;63468;52.058;4.824;2022-12-10T14:51:22;141.43;;;41.08;;
74908;SDS011;63468;52.058;4.824;2022-12-10T14:53:50;129.80;;;37.53;;
74908;SDS011;63468;52.058;4.824;2022-12-10T14:56:33;134.85;;;39.13;;
74908;SDS011;63468;52.058;4.824;2022-12-10T15:01:36;145.40;;;40.95;;
74908;SDS011;63468;52.058;4.824;2022-12-10T15:04:04;163.80;;;47.50;;
74908;SDS011;63468;52.058;4.824;2022-12-10T15:06:34;148.38;;;41.28;;
74908;SDS011;63468;52.058;4.824;2022-12-10T15:09:00;141.90;;;48.35;;
74908;SDS011;63468;52.058;4.824;2022-12-10T15:11:26;143.95;;;46.17;;
74908;SDS011;63468;52.058;4.824;2022-12-10T15:13:53;121.70;;;42.35;;
74908;SDS011;63468;52.058;4.824;2022-12-10T15:16:28;135.68;;;45.42;;
74908;SDS011;63468;52.058;4.824;2022-12-10T15:19:07;154.13;;;44.42;;
74908;SDS011;63468;52.058;4.824;2022-12-10T15:21:33;146.27;;;41.50;;
74908;SDS011;63468;52.058;4.824;2022-12-10T15:24:17;142.85;;;38.95;;
74908;SDS011;63468;52.058;4.824;2022-12-10T15:26:48;142.43;;;38.97;;
74908;SDS011;63468;52.058;4.824;2022-12-10T15:31:58;132.75;;;41.08;;
74908;SDS011;63468;52.058;4.824;2022-12-10T15:34:26;154.40;;;43.50;;
74908;SDS011;63468;52.058;4.824;2022-12-10T15:36:54;124.60;;;38.67;;
74908;SDS011;63468;52.058;4.824;2022-12-10T15:39:55;125.47;;;38.83;;
74908;SDS011;63468;52.058;4.824;2022-12-10T15:42:27;135.35;;;36.00;;
74908;SDS011;63468;52.058;4.824;2022-12-10T15:44:54;124.75;;;36.30;;
74908;SDS011;63468;52.058;4.824;2022-12-10T15:47:23;130.52;;;36.33;;
74908;SDS011;63468;52.058;4.824;2022-12-10T15:49:50;132.93;;;39.35;;
74908;SDS011;63468;52.058;4.824;2022-12-10T15:52:18;128.77;;;37.83;;
74908;SDS011;63468;52.058;4.824;2022-12-10T15:54:47;121.20;;;38.78;;
74908;SDS011;63468;52.058;4.824;2022-12-10T15:57:15;139.98;;;37.60;;
74908;SDS011;63468;52.058;4.824;2022-12-10T15:59:46;117.15;;;36.00;;
74908;SDS011;63468;52.058;4.824;2022-12-10T16:07:42;122.68;;;41.40;;
74908;SDS011;63468;52.058;4.824;2022-12-10T16:10:09;119.75;;;36.83;;
74908;SDS011;63468;52.058;4.824;2022-12-10T16:12:35;120.88;;;35.85;;
74908;SDS011;63468;52.058;4.824;2022-12-10T16:15:02;124.30;;;36.13;;
74908;SDS011;63468;52.058;4.824;2022-12-10T16:17:28;125.50;;;36.08;;
74908;SDS011;63468;52.058;4.824;2022-12-10T16:20:09;169.75;;;41.45;;